Time;durP1;ratioP1;P1;durP2;ratioP2;P2;SDS_P1;SDS_P2;PMS_P1;PMS_P2;Temp;Humidity;BMP_temperature;BMP_pressure;BME280_temperature;BME280_humidity;BME280_pressure;Samples;Min_cycle;Max_cycle;Signal;HPM_P1;HPM_P2
2021/09/20 00:00:54;;;;;;;;;;;14.20;99.90;;;;;;5949934;23;19962;-70
2021/09/20 00:03:20;;;;;;;;;;;14.30;99.90;;;;;;5924687;23;25059;-70
2021/09/20 00:05:45;;;;;;;;;;;14.20;99.90;;;;;;5921873;23;25074;-70
2021/09/20 00:08:13;;;;;;;;;;;14.20;99.90;;;;;;5949045;23;20038;-70
2021/09/20 00:10:39;;;;;;;;;;;14.20;99.90;;;;;;5948527;23;19982;-69
2021/09/20 00:13:04;;;;;;;;;;;14.20;99.90;;;;;;5947272;23;20252;-70
2021/09/20 00:15:30;;;;;;;;;;;14.20;99.90;;;;;;5946874;23;20395;-70
2021/09/20 00:17:55;;;;;;;;;;;14.10;99.90;;;;;;5949683;23;25054;-69
2021/09/20 00:20:21;;;;;;;;;;;14.10;99.90;;;;;;5946777;23;19966;-70
2021/09/20 00:22:48;;;;;;;;;;;14.10;99.90;;;;;;5948245;23;20103;-70
2021/09/20 00:25:14;;;;;;;;;;;14.10;99.90;;;;;;5948923;23;19967;-70
2021/09/20 00:27:42;;;;;;;;;;;14.10;99.90;;;;;;5947884;23;20152;-71
2021/09/20 00:30:11;;;;;;;;;;;14.10;99.90;;;;;;5948472;23;20116;-70
2021/09/20 00:32:39;;;;;;;;;;;14.10;99.90;;;;;;5948757;23;25060;-70
2021/09/20 00:35:06;;;;;;;;;;;14.10;99.90;;;;;;5949031;23;19966;-70
2021/09/20 00:37:31;;;;;;;;;;;14.10;99.90;;;;;;5947474;23;20126;-70
2021/09/20 00:39:57;;;;;;;;;;;14.10;99.90;;;;;;5948882;23;20241;-70
2021/09/20 00:42:22;;;;;;;;;;;14.10;99.90;;;;;;5935637;23;20074;-70
2021/09/20 00:44:48;;;;;;;;;;;14.10;99.90;;;;;;5955979;23;20658;-70
2021/09/20 00:47:13;;;;;;;;;;;14.10;99.90;;;;;;5949095;23;20119;-71
2021/09/20 00:49:39;;;;;;;;;;;14.10;99.90;;;;;;5948244;23;20105;-70
2021/09/20 00:52:04;;;;;;;;;;;14.00;99.90;;;;;;5922731;23;20621;-70
2021/09/20 00:54:30;;;;;;;;;;;14.00;99.90;;;;;;5923578;23;20164;-70
2021/09/20 00:56:56;;;;;;;;;;;14.00;99.90;;;;;;5945277;23;20144;-70
2021/09/20 00:59:22;;;;;;;;;;;14.00;99.90;;;;;;5949383;23;20836;-69
2021/09/20 01:01:48;;;;;;;;;;;14.00;99.90;;;;;;5948567;23;25114;-70
2021/09/20 01:04:19;;;;;;;;;;;14.00;99.90;;;;;;5948597;23;20389;-70
2021/09/20 01:06:44;;;;;;;;;;;14.00;99.90;;;;;;5945776;23;25069;-70
2021/09/20 01:09:10;;;;;;;;;;;13.90;99.90;;;;;;5922309;23;20100;-69
2021/09/20 01:11:45;;;;;;;;;;;13.90;99.90;;;;;;5948418;23;20214;-69
2021/09/20 01:14:11;;;;;;;;;;;13.90;99.90;;;;;;5947723;23;25045;-70
2021/09/20 01:16:39;;;;;;;;;;;13.90;99.90;;;;;;5946500;23;20261;-69
2021/09/20 01:19:07;;;;;;;;;;;13.90;99.90;;;;;;5946425;23;20257;-69
2021/09/20 01:21:35;;;;;;;;;;;13.90;99.90;;;;;;5946741;23;25123;-70
2021/09/20 01:24:03;;;;;;;;;;;13.90;99.90;;;;;;5947145;23;20008;-69
2021/09/20 01:26:28;;;;;;;;;;;13.90;99.90;;;;;;5922316;23;20110;-70
2021/09/20 01:28:54;;;;;;;;;;;13.90;99.90;;;;;;5949056;23;20109;-69
2021/09/20 01:31:20;;;;;;;;;;;13.90;99.90;;;;;;5946532;23;20532;-70
2021/09/20 01:33:45;;;;;;;;;;;13.90;99.90;;;;;;5948568;23;20080;-70
2021/09/20 01:36:13;;;;;;;;;;;13.90;99.90;;;;;;5947067;23;25052;-69
2021/09/20 01:38:39;;;;;;;;;;;13.80;99.90;;;;;;5948010;23;20750;-70
2021/09/20 01:41:07;;;;;;;;;;;13.90;99.90;;;;;;5948516;23;20182;-70
2021/09/20 01:43:32;;;;;;;;;;;13.80;99.90;;;;;;5947392;23;19960;-69
2021/09/20 01:45:58;;;;;;;;;;;13.80;99.90;;;;;;5946045;23;20159;-69
2021/09/20 01:48:23;;;;;;;;;;;13.80;99.90;;;;;;5947972;23;20079;-69
2021/09/20 01:50:48;;;;;;;;;;;13.80;99.90;;;;;;5946842;23;20204;-69
2021/09/20 01:53:14;;;;;;;;;;;13.80;99.90;;;;;;5948054;23;20140;-70
2021/09/20 01:55:40;;;;;;;;;;;13.80;99.90;;;;;;5943985;23;19985;-69
2021/09/20 01:58:06;;;;;;;;;;;13.70;99.90;;;;;;5949270;23;20763;-69
2021/09/20 02:00:34;;;;;;;;;;;13.70;99.90;;;;;;5954709;23;20119;-69
2021/09/20 02:02:59;;;;;;;;;;;13.70;99.90;;;;;;5951934;23;20171;-69
2021/09/20 02:05:25;;;;;;;;;;;13.70;99.90;;;;;;5924350;23;20098;-69
2021/09/20 02:07:50;;;;;;;;;;;13.70;99.90;;;;;;5947673;23;20104;-70
2021/09/20 02:10:16;;;;;;;;;;;13.70;99.90;;;;;;5946963;23;25040;-70
2021/09/20 02:12:42;;;;;;;;;;;13.70;99.90;;;;;;5947565;23;20012;-69
2021/09/20 02:15:11;;;;;;;;;;;13.60;99.90;;;;;;5945745;23;20563;-69
2021/09/20 02:17:36;;;;;;;;;;;13.70;99.90;;;;;;5947211;23;20137;-70
2021/09/20 02:20:03;;;;;;;;;;;13.70;99.90;;;;;;5922220;23;25069;-69
2021/09/20 02:22:34;;;;;;;;;;;13.60;99.90;;;;;;5946331;23;19968;-69
2021/09/20 02:25:00;;;;;;;;;;;13.60;99.90;;;;;;5946846;23;19998;-69
2021/09/20 02:27:25;;;;;;;;;;;13.60;99.90;;;;;;5921252;23;20127;-69
2021/09/20 02:29:51;;;;;;;;;;;13.60;99.90;;;;;;5946776;23;20100;-70
2021/09/20 02:32:19;;;;;;;;;;;13.60;99.90;;;;;;5920470;23;20247;-70
2021/09/20 02:34:44;;;;;;;;;;;13.60;99.90;;;;;;5946313;23;19973;-70
2021/09/20 02:37:12;;;;;;;;;;;13.60;99.90;;;;;;5945296;23;20200;-70
2021/09/20 02:39:42;;;;;;;;;;;13.70;99.90;;;;;;5922601;23;19976;-69
2021/09/20 02:42:15;;;;;;;;;;;13.60;99.90;;;;;;5946877;23;25047;-70
2021/09/20 02:44:41;;;;;;;;;;;13.60;99.90;;;;;;5954631;23;20099;-70
2021/09/20 02:47:06;;;;;;;;;;;13.60;99.90;;;;;;5955588;23;20501;-70
2021/09/20 02:49:32;;;;;;;;;;;13.60;99.90;;;;;;5946465;23;25056;-70
2021/09/20 02:51:57;;;;;;;;;;;13.60;99.90;;;;;;5947325;23;19956;-70
2021/09/20 02:54:25;;;;;;;;;;;13.60;99.90;;;;;;5947223;23;20091;-70
2021/09/20 02:56:53;;;;;;;;;;;13.60;99.90;;;;;;5945282;23;20104;-70
2021/09/20 02:59:21;;;;;;;;;;;13.50;99.90;;;;;;5946436;23;20068;-70
2021/09/20 03:01:52;;;;;;;;;;;13.50;99.90;;;;;;5946102;23;20137;-70
2021/09/20 03:04:20;;;;;;;;;;;13.50;99.90;;;;;;5947289;23;20133;-69
2021/09/20 03:06:45;;;;;;;;;;;13.50;99.90;;;;;;5921541;23;20537;-70
2021/09/20 03:09:13;;;;;;;;;;;13.40;99.90;;;;;;5946461;23;20161;-69
2021/09/20 03:11:38;;;;;;;;;;;13.50;99.90;;;;;;5921888;23;20091;-69
2021/09/20 03:14:04;;;;;;;;;;;13.50;99.90;;;;;;5945158;23;20199;-69
2021/09/20 03:16:29;;;;;;;;;;;13.40;99.90;;;;;;5943889;23;20057;-70
2021/09/20 03:18:55;;;;;;;;;;;13.40;99.90;;;;;;5947048;23;25040;-69
2021/09/20 03:21:24;;;;;;;;;;;13.40;99.90;;;;;;5945298;23;20105;-69
2021/09/20 03:23:54;;;;;;;;;;;13.40;99.90;;;;;;5946564;23;25054;-70
2021/09/20 03:26:23;;;;;;;;;;;13.40;99.90;;;;;;5945830;23;20062;-69
2021/09/20 03:28:48;;;;;;;;;;;13.40;99.90;;;;;;5947450;23;20569;-69
2021/09/20 03:31:14;;;;;;;;;;;13.40;99.90;;;;;;5948495;23;20189;-70
2021/09/20 03:33:42;;;;;;;;;;;13.40;99.90;;;;;;5947460;23;20135;-70
2021/09/20 03:36:10;;;;;;;;;;;13.40;99.90;;;;;;5946301;23;20115;-70
2021/09/20 03:38:36;;;;;;;;;;;13.40;99.90;;;;;;5948103;23;25058;-70
2021/09/20 03:41:01;;;;;;;;;;;13.40;99.90;;;;;;5949710;23;20086;-69
2021/09/20 03:43:27;;;;;;;;;;;13.40;99.90;;;;;;5949036;23;20123;-70
2021/09/20 03:45:52;;;;;;;;;;;13.30;99.90;;;;;;5947665;23;25045;-70
2021/09/20 03:48:18;;;;;;;;;;;13.40;99.90;;;;;;5948719;23;20011;-69
2021/09/20 03:50:43;;;;;;;;;;;13.30;99.90;;;;;;5949722;23;21009;-69
2021/09/20 03:53:11;;;;;;;;;;;13.30;99.90;;;;;;5923924;23;20158;-69
2021/09/20 03:55:36;;;;;;;;;;;13.30;99.90;;;;;;5947423;23;20094;-70
2021/09/20 03:58:02;;;;;;;;;;;13.30;99.90;;;;;;5948487;23;20097;-70
2021/09/20 04:00:28;;;;;;;;;;;13.30;99.90;;;;;;5947435;23;20145;-69
2021/09/20 04:02:54;;;;;;;;;;;13.30;99.90;;;;;;5946943;23;25063;-70
2021/09/20 04:05:21;;;;;;;;;;;13.30;99.90;;;;;;5950798;23;20018;-69
2021/09/20 04:07:47;;;;;;;;;;;13.30;99.90;;;;;;5948267;23;20083;-69
2021/09/20 04:10:13;;;;;;;;;;;13.30;99.90;;;;;;5948477;23;25113;-69
2021/09/20 04:12:41;;;;;;;;;;;13.20;99.90;;;;;;5949322;23;20060;-69
2021/09/20 04:15:07;;;;;;;;;;;13.20;99.90;;;;;;5946870;23;20535;-70
2021/09/20 04:17:35;;;;;;;;;;;13.20;99.90;;;;;;5946643;23;25035;-70
2021/09/20 04:20:00;;;;;;;;;;;13.20;99.90;;;;;;5947581;23;20117;-70
2021/09/20 04:22:26;;;;;;;;;;;13.20;99.90;;;;;;5947277;23;20106;-69
2021/09/20 04:24:51;;;;;;;;;;;13.20;99.90;;;;;;5949207;23;25036;-70
2021/09/20 04:27:19;;;;;;;;;;;13.20;99.90;;;;;;5947070;23;25072;-70
2021/09/20 04:29:44;;;;;;;;;;;13.30;99.90;;;;;;5948578;23;20153;-70
2021/09/20 04:32:13;;;;;;;;;;;13.20;99.90;;;;;;5947113;23;20119;-70
2021/09/20 04:34:39;;;;;;;;;;;13.20;99.90;;;;;;5946306;23;20136;-70
2021/09/20 04:37:04;;;;;;;;;;;13.20;99.90;;;;;;5920551;23;20118;-69
2021/09/20 04:39:29;;;;;;;;;;;13.20;99.90;;;;;;5946198;23;20004;-70
2021/09/20 04:42:00;;;;;;;;;;;13.20;99.90;;;;;;5947673;23;25057;-69
2021/09/20 04:44:25;;;;;;;;;;;13.20;99.90;;;;;;5934167;23;25035;-70
2021/09/20 04:46:51;;;;;;;;;;;13.20;99.90;;;;;;5968996;23;25047;-69
2021/09/20 04:49:17;;;;;;;;;;;13.20;99.90;;;;;;5967130;23;19959;-70
2021/09/20 04:51:42;;;;;;;;;;;13.20;99.90;;;;;;5949837;23;20068;-70
2021/09/20 04:54:08;;;;;;;;;;;13.20;99.90;;;;;;5924246;23;20080;-69
2021/09/20 04:56:33;;;;;;;;;;;13.20;99.90;;;;;;5946826;23;20121;-70
2021/09/20 04:58:59;;;;;;;;;;;13.20;99.90;;;;;;5947318;23;20111;-69
2021/09/20 05:01:24;;;;;;;;;;;13.20;99.90;;;;;;5946751;23;20105;-70
2021/09/20 05:03:50;;;;;;;;;;;13.20;99.90;;;;;;5923344;23;20496;-70
2021/09/20 05:06:15;;;;;;;;;;;13.20;99.90;;;;;;5948083;23;20089;-69
2021/09/20 05:08:44;;;;;;;;;;;13.20;99.90;;;;;;5961660;23;25065;-70
2021/09/20 05:11:11;;;;;;;;;;;13.10;99.90;;;;;;5951249;23;19963;-70
2021/09/20 05:13:37;;;;;;;;;;;13.10;99.90;;;;;;5945687;23;20600;-70
2021/09/20 05:16:03;;;;;;;;;;;13.10;99.90;;;;;;5918800;23;25090;-70
2021/09/20 05:18:28;;;;;;;;;;;13.10;99.90;;;;;;5938133;23;20082;-70
2021/09/20 05:20:53;;;;;;;;;;;13.10;99.90;;;;;;5939750;23;20103;-70
2021/09/20 05:23:19;;;;;;;;;;;13.10;99.90;;;;;;5942504;23;19989;-70
2021/09/20 05:25:44;;;;;;;;;;;13.10;99.90;;;;;;5914398;23;20552;-71
2021/09/20 05:28:10;;;;;;;;;;;13.10;99.90;;;;;;5941056;23;20569;-70
2021/09/20 05:30:35;;;;;;;;;;;13.10;99.90;;;;;;5915574;23;20137;-72
2021/09/20 05:33:01;;;;;;;;;;;13.10;99.90;;;;;;5941405;23;20574;-71
2021/09/20 05:35:27;;;;;;;;;;;13.10;99.90;;;;;;5942753;23;20840;-71
2021/09/20 05:37:52;;;;;;;;;;;13.10;99.90;;;;;;5946115;23;20137;-70
2021/09/20 05:40:18;;;;;;;;;;;13.10;99.90;;;;;;5946284;23;20056;-70
2021/09/20 05:42:44;;;;;;;;;;;13.10;99.90;;;;;;5950018;23;25078;-70
2021/09/20 05:45:10;;;;;;;;;;;13.10;99.90;;;;;;5948276;23;20389;-70
2021/09/20 05:47:36;;;;;;;;;;;13.10;99.90;;;;;;5948440;23;20090;-70
2021/09/20 05:50:02;;;;;;;;;;;13.10;99.90;;;;;;5951151;23;20077;-70
2021/09/20 05:52:28;;;;;;;;;;;13.10;99.90;;;;;;5951210;23;20105;-70
2021/09/20 05:54:53;;;;;;;;;;;13.10;99.90;;;;;;5949355;23;19968;-70
2021/09/20 05:57:18;;;;;;;;;;;13.10;99.90;;;;;;5926847;23;20120;-70
2021/09/20 05:59:44;;;;;;;;;;;13.10;99.90;;;;;;5948846;23;19998;-71
2021/09/20 06:02:12;;;;;;;;;;;13.10;99.90;;;;;;5951631;23;20091;-71
2021/09/20 06:04:37;;;;;;;;;;;13.10;99.90;;;;;;5940849;23;25049;-70
2021/09/20 06:07:03;;;;;;;;;;;13.10;99.90;;;;;;5945184;23;19986;-70
2021/09/20 06:09:34;;;;;;;;;;;13.20;99.90;;;;;;5949824;23;20190;-71
2021/09/20 06:11:59;;;;;;;;;;;13.10;99.90;;;;;;5920585;23;20557;-70
2021/09/20 06:14:25;;;;;;;;;;;13.20;99.90;;;;;;5949034;23;20093;-70
2021/09/20 06:16:50;;;;;;;;;;;13.20;99.90;;;;;;5947819;23;20120;-70
2021/09/20 06:19:15;;;;;;;;;;;13.20;99.90;;;;;;5924675;23;20181;-70
2021/09/20 06:21:41;;;;;;;;;;;13.20;99.90;;;;;;5950146;23;20573;-70
2021/09/20 06:24:06;;;;;;;;;;;13.20;99.90;;;;;;5952118;23;20755;-70
2021/09/20 06:26:32;;;;;;;;;;;13.30;99.90;;;;;;5949034;23;20548;-70
2021/09/20 06:28:57;;;;;;;;;;;13.30;99.90;;;;;;5950268;23;19996;-70
2021/09/20 06:31:23;;;;;;;;;;;13.30;99.90;;;;;;5950398;23;20469;-70
2021/09/20 06:33:49;;;;;;;;;;;13.30;99.90;;;;;;5951667;23;20000;-70
2021/09/20 06:36:14;;;;;;;;;;;13.30;99.90;;;;;;5925420;23;20471;-71
2021/09/20 06:38:40;;;;;;;;;;;13.30;99.90;;;;;;5950054;23;19964;-71
2021/09/20 06:41:05;;;;;;;;;;;13.40;99.90;;;;;;5950581;23;20115;-71
2021/09/20 06:43:31;;;;;;;;;;;13.40;99.90;;;;;;5949754;23;20068;-71
2021/09/20 06:45:56;;;;;;;;;;;13.40;99.90;;;;;;5947664;23;20068;-71
2021/09/20 06:48:22;;;;;;;;;;;13.40;99.90;;;;;;5949141;23;20541;-70
2021/09/20 06:50:47;;;;;;;;;;;13.40;99.90;;;;;;5946465;23;20127;-72
2021/09/20 06:53:13;;;;;;;;;;;13.50;99.90;;;;;;5949151;23;20012;-71
2021/09/20 06:55:38;;;;;;;;;;;13.50;99.90;;;;;;5946942;23;20170;-71
2021/09/20 06:58:04;;;;;;;;;;;13.50;99.90;;;;;;5947828;23;20100;-71
2021/09/20 07:00:30;;;;;;;;;;;13.50;99.90;;;;;;5948739;23;20109;-70
2021/09/20 07:02:55;;;;;;;;;;;13.50;99.90;;;;;;5947809;23;20140;-71
2021/09/20 07:05:21;;;;;;;;;;;13.60;99.90;;;;;;5948069;23;20839;-71
2021/09/20 07:07:46;;;;;;;;;;;13.60;99.90;;;;;;5949276;23;20100;-71
2021/09/20 07:10:12;;;;;;;;;;;13.60;99.90;;;;;;5947885;23;20097;-71
2021/09/20 07:12:38;;;;;;;;;;;13.70;99.90;;;;;;5947100;23;20131;-71
2021/09/20 07:15:04;;;;;;;;;;;13.70;99.90;;;;;;5949438;23;20149;-71
2021/09/20 07:17:30;;;;;;;;;;;13.70;99.90;;;;;;5946935;23;20019;-72
2021/09/20 07:19:56;;;;;;;;;;;13.70;99.90;;;;;;5950364;23;25056;-74
2021/09/20 07:22:21;;;;;;;;;;;13.80;99.90;;;;;;5948611;23;19965;-71
2021/09/20 07:24:47;;;;;;;;;;;13.80;99.90;;;;;;5926368;23;20184;-71
2021/09/20 07:27:14;;;;;;;;;;;13.80;99.90;;;;;;5952489;23;20062;-71
2021/09/20 07:29:40;;;;;;;;;;;14.00;99.90;;;;;;5951947;23;20123;-71
2021/09/20 07:32:06;;;;;;;;;;;14.00;99.90;;;;;;5960710;23;20084;-71
2021/09/20 07:34:31;;;;;;;;;;;14.00;99.90;;;;;;5962211;23;20084;-71
2021/09/20 07:36:57;;;;;;;;;;;14.00;99.90;;;;;;5956186;23;20169;-72
2021/09/20 07:39:22;;;;;;;;;;;14.10;99.90;;;;;;5948649;23;19997;-71
2021/09/20 07:41:48;;;;;;;;;;;14.10;99.90;;;;;;5949343;23;19961;-71
2021/09/20 07:44:13;;;;;;;;;;;14.10;99.90;;;;;;5949285;23;25051;-72
2021/09/20 07:46:39;;;;;;;;;;;14.10;99.90;;;;;;5946187;23;19987;-71
2021/09/20 07:49:04;;;;;;;;;;;14.10;99.90;;;;;;5949798;23;20391;-71
2021/09/20 07:51:30;;;;;;;;;;;14.20;99.90;;;;;;5951013;23;25100;-71
2021/09/20 07:53:55;;;;;;;;;;;14.20;99.90;;;;;;5925142;23;20016;-71
2021/09/20 07:56:21;;;;;;;;;;;14.20;99.90;;;;;;5948896;23;20222;-71
2021/09/20 07:58:46;;;;;;;;;;;14.20;99.90;;;;;;5951115;23;25097;-71
2021/09/20 08:01:11;;;;;;;;;;;14.30;99.90;;;;;;5950405;23;20047;-71
2021/09/20 08:03:37;;;;;;;;;;;14.30;99.90;;;;;;5950393;23;20111;-71
2021/09/20 08:06:02;;;;;;;;;;;14.30;99.90;;;;;;5948419;23;20139;-69
2021/09/20 08:08:28;;;;;;;;;;;14.30;99.90;;;;;;5948211;23;20170;-72
2021/09/20 08:10:53;;;;;;;;;;;14.30;99.90;;;;;;5950525;23;20141;-70
2021/09/20 08:13:19;;;;;;;;;;;14.40;99.90;;;;;;5949355;23;20063;-72
2021/09/20 08:15:45;;;;;;;;;;;14.40;99.90;;;;;;5948447;23;20133;-70
2021/09/20 08:18:11;;;;;;;;;;;14.40;99.90;;;;;;5951537;23;20110;-70
2021/09/20 08:20:38;;;;;;;;;;;14.50;99.90;;;;;;5948043;23;20421;-71
2021/09/20 08:23:07;;;;;;;;;;;14.50;99.90;;;;;;5951382;23;20135;-70
2021/09/20 08:25:33;;;;;;;;;;;14.60;99.90;;;;;;5952150;23;19965;-71
2021/09/20 08:27:59;;;;;;;;;;;14.60;99.90;;;;;;5951570;23;25040;-71
2021/09/20 08:30:24;;;;;;;;;;;14.70;99.90;;;;;;5946971;23;19974;-71
2021/09/20 08:32:50;;;;;;;;;;;14.70;99.90;;;;;;5925615;23;20120;-71
2021/09/20 08:35:16;;;;;;;;;;;14.80;99.90;;;;;;5951199;23;20149;-71
2021/09/20 08:37:41;;;;;;;;;;;14.90;99.90;;;;;;5950815;23;20311;-71
2021/09/20 08:40:07;;;;;;;;;;;15.00;99.90;;;;;;5950763;23;20084;-71
2021/09/20 08:42:36;;;;;;;;;;;15.00;99.90;;;;;;5949080;23;20105;-71
2021/09/20 08:45:03;;;;;;;;;;;15.10;99.90;;;;;;5950649;23;20429;-71
2021/09/20 08:47:28;;;;;;;;;;;15.10;99.90;;;;;;5948853;23;25133;-71
2021/09/20 08:49:55;;;;;;;;;;;15.20;99.90;;;;;;5951035;23;20062;-71
2021/09/20 08:52:23;;;;;;;;;;;15.30;99.90;;;;;;5928052;23;20075;-71
2021/09/20 08:54:51;;;;;;;;;;;15.30;99.90;;;;;;5951038;23;20850;-71
2021/09/20 08:57:16;;;;;;;;;;;15.40;99.90;;;;;;5950212;23;20195;-70
2021/09/20 08:59:42;;;;;;;;;;;15.40;99.90;;;;;;5948894;23;20121;-70
2021/09/20 09:02:09;;;;;;;;;;;15.40;99.90;;;;;;5968897;23;20072;-71
2021/09/20 09:04:36;;;;;;;;;;;15.50;99.90;;;;;;5967999;23;20061;-71
2021/09/20 09:07:06;;;;;;;;;;;15.60;99.90;;;;;;5952306;23;20085;-70
2021/09/20 09:09:32;;;;;;;;;;;15.60;99.90;;;;;;5948567;23;25049;-70
2021/09/20 09:12:09;;;;;;;;;;;15.60;99.90;;;;;;5949866;23;20333;-71
2021/09/20 09:14:57;;;;;;;;;;;15.70;99.90;;;;;;5947107;23;20095;-71
2021/09/20 09:17:25;;;;;;;;;;;15.70;99.90;;;;;;5935298;23;20877;-71
2021/09/20 09:20:23;;;;;;;;;;;15.70;99.90;;;;;;5950492;23;20535;-72
2021/09/20 09:22:49;;;;;;;;;;;15.80;99.90;;;;;;5887738;23;20081;-71
2021/09/20 09:25:16;;;;;;;;;;;15.80;99.90;;;;;;5950379;23;20517;-72
2021/09/20 09:27:42;;;;;;;;;;;15.80;99.90;;;;;;5922279;23;20093;-71
2021/09/20 09:30:16;;;;;;;;;;;15.80;99.90;;;;;;5947114;23;20150;-70
2021/09/20 09:32:44;;;;;;;;;;;15.80;99.90;;;;;;5945977;23;20089;-71
2021/09/20 09:35:10;;;;;;;;;;;15.80;99.90;;;;;;5949741;23;19976;-71
2021/09/20 09:37:37;;;;;;;;;;;15.90;99.90;;;;;;5949691;23;20127;-70
2021/09/20 09:40:25;;;;;;;;;;;15.90;99.90;;;;;;5948986;23;20156;-70
2021/09/20 09:42:57;;;;;;;;;;;15.90;99.90;;;;;;5949944;23;19960;-70
2021/09/20 09:45:25;;;;;;;;;;;16.00;99.90;;;;;;5948078;23;20182;-70
2021/09/20 09:48:03;;;;;;;;;;;15.90;99.90;;;;;;5950462;23;20085;-70
2021/09/20 09:50:29;;;;;;;;;;;16.00;99.90;;;;;;5950403;23;20572;-71
2021/09/20 09:52:55;;;;;;;;;;;16.00;99.90;;;;;;5949113;23;25039;-71
2021/09/20 09:55:22;;;;;;;;;;;16.00;99.90;;;;;;5946490;23;20094;-71
2021/09/20 09:57:49;;;;;;;;;;;16.00;99.90;;;;;;5951670;23;25053;-71
2021/09/20 10:00:16;;;;;;;;;;;16.10;99.90;;;;;;5948779;23;19977;-70
2021/09/20 10:02:42;;;;;;;;;;;16.10;99.90;;;;;;5949001;23;25062;-70
2021/09/20 10:05:10;;;;;;;;;;;16.20;99.90;;;;;;5948709;23;19969;-70
2021/09/20 10:07:39;;;;;;;;;;;16.20;99.90;;;;;;5948532;23;20551;-69
2021/09/20 10:10:10;;;;;;;;;;;16.20;99.90;;;;;;5951253;23;20100;-70
2021/09/20 10:12:36;;;;;;;;;;;16.30;99.90;;;;;;5952174;23;20074;-70
2021/09/20 10:15:02;;;;;;;;;;;16.30;99.90;;;;;;5949170;23;20167;-70
2021/09/20 10:17:31;;;;;;;;;;;16.30;99.90;;;;;;5949129;23;20009;-70
2021/09/20 10:19:57;;;;;;;;;;;16.40;99.90;;;;;;5950948;23;20081;-70
2021/09/20 10:22:24;;;;;;;;;;;16.30;99.90;;;;;;5952035;23;20081;-70
2021/09/20 10:24:52;;;;;;;;;;;16.30;99.90;;;;;;5952256;23;20188;-71
2021/09/20 10:27:20;;;;;;;;;;;16.40;99.90;;;;;;5953755;23;20554;-70
2021/09/20 10:29:50;;;;;;;;;;;16.40;99.90;;;;;;5962261;23;19995;-71
2021/09/20 10:32:16;;;;;;;;;;;16.50;99.90;;;;;;5951213;23;20190;-71
2021/09/20 10:34:41;;;;;;;;;;;16.50;99.90;;;;;;5951998;23;20078;-71
2021/09/20 10:37:07;;;;;;;;;;;16.50;99.90;;;;;;5949292;23;20482;-70
2021/09/20 10:39:44;;;;;;;;;;;16.50;99.90;;;;;;5951966;23;20158;-70
2021/09/20 10:42:28;;;;;;;;;;;16.50;99.90;;;;;;5950302;23;20593;-69
2021/09/20 10:44:54;;;;;;;;;;;16.50;99.90;;;;;;5925095;23;20522;-70
2021/09/20 10:47:19;;;;;;;;;;;16.40;99.90;;;;;;5951321;23;20091;-71
2021/09/20 10:49:49;;;;;;;;;;;16.40;99.90;;;;;;5945938;23;25085;-70
2021/09/20 10:52:14;;;;;;;;;;;16.30;99.90;;;;;;5948078;23;19967;-70
2021/09/20 10:54:40;;;;;;;;;;;16.40;99.90;;;;;;5948975;23;25045;-70
2021/09/20 10:57:17;;;;;;;;;;;16.40;99.90;;;;;;5947179;23;25065;-70
2021/09/20 10:59:42;;;;;;;;;;;16.50;99.90;;;;;;5948221;23;19960;-70
2021/09/20 11:02:11;;;;;;;;;;;16.60;99.90;;;;;;5949788;23;20317;-70
2021/09/20 11:04:39;;;;;;;;;;;16.70;99.90;;;;;;5925894;23;20102;-71
2021/09/20 11:07:09;;;;;;;;;;;16.80;99.90;;;;;;5945696;23;20123;-71
2021/09/20 11:09:58;;;;;;;;;;;16.90;99.90;;;;;;5950848;23;19998;-71
2021/09/20 11:12:24;;;;;;;;;;;17.00;99.90;;;;;;5949375;23;20197;-70
2021/09/20 11:14:49;;;;;;;;;;;17.00;99.90;;;;;;5948210;23;20072;-71
2021/09/20 11:17:16;;;;;;;;;;;17.00;99.90;;;;;;5945615;23;20116;-70
2021/09/20 11:19:44;;;;;;;;;;;17.10;99.90;;;;;;5945208;23;20086;-70
2021/09/20 11:22:13;;;;;;;;;;;17.10;99.90;;;;;;5946185;23;25087;-70
2021/09/20 11:24:42;;;;;;;;;;;17.10;99.90;;;;;;5948875;23;19998;-70
2021/09/20 11:27:26;;;;;;;;;;;17.10;99.90;;;;;;5946864;23;20098;-70
2021/09/20 11:29:55;;;;;;;;;;;17.10;99.90;;;;;;5949661;23;20127;-70
2021/09/20 11:32:24;;;;;;;;;;;17.10;99.90;;;;;;5921491;23;20038;-71
2021/09/20 11:34:52;;;;;;;;;;;17.10;99.90;;;;;;5947592;23;20174;-70
2021/09/20 11:37:25;;;;;;;;;;;17.10;99.90;;;;;;5947445;23;20479;-70
2021/09/20 11:39:52;;;;;;;;;;;17.10;99.90;;;;;;5922717;23;20181;-70
2021/09/20 11:42:19;;;;;;;;;;;17.10;99.90;;;;;;5947017;23;20153;-70
2021/09/20 11:44:49;;;;;;;;;;;17.00;99.90;;;;;;5949164;23;20012;-70
2021/09/20 11:47:15;;;;;;;;;;;17.10;99.90;;;;;;5945592;23;20119;-71
2021/09/20 11:49:41;;;;;;;;;;;17.10;99.90;;;;;;5947695;23;19987;-71
2021/09/20 11:52:06;;;;;;;;;;;17.10;99.90;;;;;;5950562;23;20075;-71
2021/09/20 11:54:36;;;;;;;;;;;17.10;99.90;;;;;;5919794;23;25064;-71
2021/09/20 11:57:09;;;;;;;;;;;17.10;99.90;;;;;;5947194;23;19978;-71
2021/09/20 11:59:35;;;;;;;;;;;17.10;99.90;;;;;;5948890;23;20110;-71
2021/09/20 12:02:00;;;;;;;;;;;17.10;99.90;;;;;;5947821;23;20630;-71
2021/09/20 12:04:43;;;;;;;;;;;17.10;99.90;;;;;;5949356;23;20404;-70
2021/09/20 12:07:23;;;;;;;;;;;17.10;99.90;;;;;;5947963;23;20098;-71
2021/09/20 12:09:48;;;;;;;;;;;17.10;99.90;;;;;;5949580;23;20082;-71
2021/09/20 12:12:14;;;;;;;;;;;17.00;99.90;;;;;;5924307;23;20173;-71
2021/09/20 12:14:39;;;;;;;;;;;17.00;99.90;;;;;;5949047;23;20502;-72
2021/09/20 12:17:05;;;;;;;;;;;17.10;99.90;;;;;;5946088;23;20089;-71
2021/09/20 12:19:30;;;;;;;;;;;17.10;99.90;;;;;;5952086;23;20076;-71
2021/09/20 12:21:59;;;;;;;;;;;17.10;99.90;;;;;;5949397;23;20075;-71
2021/09/20 12:24:25;;;;;;;;;;;17.00;99.90;;;;;;5948728;23;20125;-70
2021/09/20 12:26:50;;;;;;;;;;;17.10;99.90;;;;;;5947428;23;25034;-70
2021/09/20 12:29:16;;;;;;;;;;;17.10;99.90;;;;;;5951097;23;19973;-70
2021/09/20 12:31:43;;;;;;;;;;;17.10;99.90;;;;;;5923938;23;20084;-71
2021/09/20 12:34:12;;;;;;;;;;;17.10;99.90;;;;;;5947631;23;20106;-71
2021/09/20 12:36:45;;;;;;;;;;;17.10;99.90;;;;;;5922647;23;20220;-71
2021/09/20 12:39:25;;;;;;;;;;;17.20;99.90;;;;;;5947796;23;20097;-71
2021/09/20 12:42:10;;;;;;;;;;;17.20;99.90;;;;;;5922905;23;20579;-71
2021/09/20 12:44:40;;;;;;;;;;;17.20;99.90;;;;;;5949221;23;19966;-72
2021/09/20 12:47:07;;;;;;;;;;;17.20;99.90;;;;;;5949316;23;20361;-71
2021/09/20 12:49:33;;;;;;;;;;;17.30;99.90;;;;;;5948713;23;20137;-70
2021/09/20 12:51:58;;;;;;;;;;;17.30;99.90;;;;;;5945008;23;20093;-70
2021/09/20 12:54:26;;;;;;;;;;;17.30;99.90;;;;;;5946913;23;20177;-71
2021/09/20 12:56:54;;;;;;;;;;;17.30;99.90;;;;;;5942812;23;20155;-70
2021/09/20 12:59:22;;;;;;;;;;;17.30;99.90;;;;;;5949318;23;25080;-69
2021/09/20 13:01:48;;;;;;;;;;;17.40;99.90;;;;;;5948474;23;20069;-70
2021/09/20 13:04:24;;;;;;;;;;;17.40;99.90;;;;;;5948962;23;20545;-70
2021/09/20 13:07:10;;;;;;;;;;;17.50;99.90;;;;;;5945495;23;19976;-71
2021/09/20 13:09:39;;;;;;;;;;;17.60;99.90;;;;;;5946047;23;20634;-71
2021/09/20 13:12:04;;;;;;;;;;;17.60;99.90;;;;;;5948370;23;20091;-70
2021/09/20 13:14:32;;;;;;;;;;;17.60;99.90;;;;;;5946903;23;25058;-70
2021/09/20 13:17:04;;;;;;;;;;;17.70;99.90;;;;;;5947563;23;20021;-70
2021/09/20 13:19:30;;;;;;;;;;;17.80;99.90;;;;;;5956925;23;20201;-70
2021/09/20 13:22:05;;;;;;;;;;;17.80;99.90;;;;;;5967013;23;19966;-70
2021/09/20 13:24:32;;;;;;;;;;;17.80;99.90;;;;;;5957495;23;20518;-71
2021/09/20 13:26:58;;;;;;;;;;;17.80;99.90;;;;;;5946463;23;25073;-70
2021/09/20 13:29:23;;;;;;;;;;;17.80;99.90;;;;;;5948549;23;19996;-70
2021/09/20 13:31:48;;;;;;;;;;;17.80;99.90;;;;;;5946284;23;20189;-71
2021/09/20 13:34:14;;;;;;;;;;;17.80;99.90;;;;;;5946298;23;20756;-70
2021/09/20 13:36:39;;;;;;;;;;;17.80;99.90;;;;;;5944641;23;20149;-71
2021/09/20 13:39:05;;;;;;;;;;;17.80;99.90;;;;;;5946828;23;20092;-70
2021/09/20 13:41:30;;;;;;;;;;;17.80;99.90;;;;;;5945004;23;19987;-70
2021/09/20 13:43:58;;;;;;;;;;;17.70;99.90;;;;;;5950595;23;20135;-70
2021/09/20 13:46:25;;;;;;;;;;;17.70;99.90;;;;;;5943781;23;20106;-71
2021/09/20 13:48:52;;;;;;;;;;;17.70;99.90;;;;;;5945811;23;19979;-70
2021/09/20 13:51:18;;;;;;;;;;;17.70;99.90;;;;;;5942583;23;20147;-71
2021/09/20 13:53:44;;;;;;;;;;;17.70;99.90;;;;;;5944377;23;19973;-70
2021/09/20 13:56:10;;;;;;;;;;;17.60;99.90;;;;;;5943947;23;25047;-71
2021/09/20 13:58:35;;;;;;;;;;;17.60;99.90;;;;;;5919404;23;20364;-71
2021/09/20 14:01:01;;;;;;;;;;;17.50;99.90;;;;;;5918508;23;20125;-71
2021/09/20 14:03:26;;;;;;;;;;;17.50;99.90;;;;;;5918311;23;20006;-71
2021/09/20 14:05:52;;;;;;;;;;;17.50;99.90;;;;;;5917936;23;25043;-71
2021/09/20 14:08:21;;;;;;;;;;;17.50;99.90;;;;;;5946184;23;20088;-70
2021/09/20 14:10:48;;;;;;;;;;;17.50;99.90;;;;;;5922539;23;20088;-70
2021/09/20 14:13:14;;;;;;;;;;;17.50;99.90;;;;;;5947659;23;25048;-70
2021/09/20 14:15:42;;;;;;;;;;;17.50;99.90;;;;;;5944419;23;20156;-70